Time;durP1;ratioP1;P1;durP2;ratioP2;P2;SDS_P1;SDS_P2;PMS_P1;PMS_P2;Temp;Humidity;BMP_temperature;BMP_pressure;BME280_temperature;BME280_humidity;BME280_pressure;Samples;Min_cycle;Max_cycle;Signal;HPM_P1;HPM_P2
2023/04/26 00:02:06;;;;;;;13.15;5.07;;;7.00;99.90;;;;;;5021901;28;20029;-90
2023/04/26 00:04:57;;;;;;;9.85;4.53;;;7.00;99.90;;;;;;5020778;28;20095;-91
2023/04/26 00:07:29;;;;;;;12.07;5.13;;;6.90;99.90;;;;;;5020214;28;20041;-90
2023/04/26 00:10:14;;;;;;;;;;;;;;;;;;;;;
2023/04/26 00:12:42;;;;;;;12.82;4.60;;;6.90;99.90;;;;;;5022502;28;20039;-90
2023/04/26 00:15:16;;;;;;;11.98;5.00;;;6.90;99.90;;;;;;5003913;28;20048;-90
2023/04/26 00:18:11;;;;;;;10.15;4.40;;;6.80;99.90;;;;;;5019802;28;20037;-91
2023/04/26 00:21:06;;;;;;;;;;;;;;;;;;;;;
2023/04/26 00:23:35;;;;;;;11.43;4.88;;;6.80;99.90;;;;;;5037723;28;20105;-90
2023/04/26 00:26:07;;;;;;;10.23;4.80;;;6.70;99.90;;;;;;5020380;28;20022;-90
2023/04/26 00:28:33;;;;;;;13.88;4.88;;;6.70;99.90;;;;;;5004079;28;20033;-91
2023/04/26 00:31:04;;;;;;;12.90;4.53;;;6.70;99.90;;;;;;5020225;28;20103;-90
2023/04/26 00:33:35;;;;;;;13.90;4.70;;;6.60;99.90;;;;;;5019777;28;20029;-90
2023/04/26 00:36:23;;;;;;;;;;;;;;;;;;;;;
2023/04/26 00:38:51;;;;;;;13.50;5.03;;;6.60;99.90;;;;;;5023152;28;20504;-90
2023/04/26 00:44:26;;;;;;;12.70;4.85;;;6.50;99.90;;;;;;5037453;28;20068;-90
2023/04/26 00:47:17;;;;;;;;;;;;;;;;;;;;;
2023/04/26 00:50:11;;;;;;;;;;;;;;;;;;;;;
2023/04/26 00:52:41;;;;;;;11.32;5.35;;;6.40;99.90;;;;;;5045866;28;20081;-92
2023/04/26 00:55:15;;;;;;;11.48;4.82;;;6.40;99.90;;;;;;5024299;28;20025;-90
2023/04/26 00:57:43;;;;;;;14.75;5.30;;;6.40;99.90;;;;;;5019364;28;20060;-91
2023/04/26 01:00:18;;;;;;;13.38;5.07;;;6.30;99.90;;;;;;5019302;28;20031;-92
2023/04/26 01:02:50;;;;;;;13.90;5.70;;;6.30;99.90;;;;;;5019405;28;20041;-91
2023/04/26 01:05:25;;;;;;;9.32;5.10;;;6.30;99.90;;;;;;5019382;28;20028;-90
2023/04/26 01:08:29;;;;;;;15.93;7.30;;;6.20;99.90;;;;;;5019459;28;20037;-91
2023/04/26 01:11:24;;;;;;;;;;;;;;;;;;;;;
2023/04/26 01:13:55;;;;;;;15.38;5.78;;;6.20;99.90;;;;;;5036387;28;20018;-90
2023/04/26 01:19:32;;;;;;;11.88;5.93;;;6.10;99.90;;;;;;5036838;28;20037;-90
2023/04/26 01:22:01;;;;;;;10.95;5.45;;;6.10;99.90;;;;;;5023569;28;20033;-91
2023/04/26 01:24:57;;;;;;;13.55;6.38;;;6.10;99.90;;;;;;5019291;28;20091;-92
2023/04/26 01:27:26;;;;;;;13.55;6.30;;;6.10;99.90;;;;;;5006196;28;20124;-90
2023/04/26 01:30:04;;;;;;;;;;;;;;;;;;;;;
2023/04/26 01:32:35;;;;;;;14.27;6.10;;;6.00;99.90;;;;;;5020150;28;20346;-91
2023/04/26 01:35:21;;;;;;;;;;;6.00;99.90;;;;;;5019388;28;20018;-91
2023/04/26 01:37:54;;;;;;;13.82;6.25;;;6.00;99.90;;;;;;5019527;28;20008;-90
2023/04/26 01:40:51;;;;;;;13.25;5.53;;;5.90;99.90;;;;;;5005193;28;20053;-90
2023/04/26 01:43:25;;;;;;;16.13;6.25;;;5.90;99.90;;;;;;5018904;28;20037;-90
2023/04/26 01:46:19;;;;;;;13.00;6.35;;;5.90;99.90;;;;;;5018553;28;20028;-90
2023/04/26 01:48:47;;;;;;;11.48;6.15;;;5.90;99.90;;;;;;5051897;28;20370;-90
2023/04/26 01:51:43;;;;;;;13.80;6.10;;;5.90;99.90;;;;;;5018598;28;20060;-90
2023/04/26 01:54:29;;;;;;;14.48;7.13;;;5.80;99.90;;;;;;5002625;28;20041;-89
2023/04/26 01:56:55;;;;;;;15.05;6.40;;;5.80;99.90;;;;;;5018555;28;20370;-90
2023/04/26 01:59:42;;;;;;;19.92;8.15;;;5.80;99.90;;;;;;5018664;28;20018;-91
2023/04/26 02:02:20;;;;;;;17.30;7.68;;;5.80;99.90;;;;;;5005409;28;20128;-91
2023/04/26 02:05:26;;;;;;;17.48;7.80;;;5.80;99.90;;;;;;5019314;28;20029;-90
2023/04/26 02:08:04;;;;;;;18.10;8.15;;;5.80;99.90;;;;;;5004054;28;20566;-90
2023/04/26 02:10:41;;;;;;;13.98;7.88;;;5.80;99.90;;;;;;5017977;28;20017;-90
2023/04/26 02:13:28;;;;;;;13.98;7.85;;;5.70;99.90;;;;;;5003237;28;20036;-91
2023/04/26 02:16:05;;;;;;;16.60;8.27;;;5.80;99.90;;;;;;5018479;28;20017;-90
2023/04/26 02:18:59;;;;;;;19.00;9.10;;;5.70;99.90;;;;;;5018312;28;20053;-90
2023/04/26 02:21:27;;;;;;;16.98;9.07;;;5.70;99.90;;;;;;5035210;28;20060;-90
2023/04/26 02:23:58;;;;;;;17.10;9.05;;;5.70;99.90;;;;;;5001749;28;20394;-90
2023/04/26 02:26:54;;;;;;;16.55;8.55;;;5.70;99.90;;;;;;5034529;28;20416;-90
2023/04/26 02:29:23;;;;;;;17.58;8.80;;;5.70;99.90;;;;;;5018565;28;20025;-90
2023/04/26 02:32:07;;;;;;;;;;;;;;;;;;;;;
2023/04/26 02:35:03;;;;;;;18.60;8.85;;;5.70;99.90;;;;;;5040150;28;20101;-91
2023/04/26 02:40:28;;;;;;;14.20;8.48;;;5.70;99.90;;;;;;5030270;28;20048;-91
2023/04/26 02:43:02;;;;;;;19.33;9.55;;;5.60;99.90;;;;;;5018463;28;20025;-90
2023/04/26 02:45:36;;;;;;;19.60;9.05;;;5.60;99.90;;;;;;5017739;28;20432;-90
2023/04/26 02:49:01;;;;;;;;;;;;;;;;;;;;;
2023/04/26 02:51:59;;;;;;;;;;;;;;;;;;;;;
2023/04/26 02:54:30;;;;;;;20.13;9.45;;;5.50;99.90;;;;;;5023669;28;20040;-91
2023/04/26 02:57:05;;;;;;;17.70;8.82;;;5.50;99.90;;;;;;5019620;28;20041;-90
2023/04/26 02:59:33;;;;;;;21.40;10.48;;;5.50;99.90;;;;;;5024288;28;20045;-91
2023/04/26 03:01:59;;;;;;;21.23;10.30;;;5.50;99.90;;;;;;5035182;28;20120;-91
2023/04/26 03:04:59;;;;;;;18.63;9.35;;;5.40;99.90;;;;;;5038301;28;20058;-89
2023/04/26 03:07:34;;;;;;;22.60;10.35;;;5.40;99.90;;;;;;5040077;28;20092;-92
2023/04/26 03:10:13;;;;;;;;;;;;;;;;;;;;;
2023/04/26 03:12:59;;;;;;;;;;;;;;;;;;;;;
2023/04/26 03:15:30;;;;;;;20.20;11.13;;;5.40;99.90;;;;;;5059622;28;20036;-91
2023/04/26 03:18:01;;;;;;;18.35;10.55;;;5.40;99.90;;;;;;5024333;28;20065;-91
2023/04/26 03:20:29;;;;;;;19.92;10.68;;;5.40;99.90;;;;;;5021708;28;20026;-90
2023/04/26 03:23:04;;;;;;;22.25;10.77;;;5.40;99.90;;;;;;5004905;28;20358;-91
2023/04/26 03:26:01;;;;;;;19.00;10.57;;;5.30;99.90;;;;;;5021821;28;20475;-90
2023/04/26 03:28:29;;;;;;;19.40;10.52;;;5.30;99.90;;;;;;5008820;28;20033;-91
2023/04/26 03:31:02;;;;;;;21.92;11.48;;;5.30;99.90;;;;;;5021365;28;20025;-91
2023/04/26 03:33:44;;;;;;;;;;;;;;;;;;;;;
2023/04/26 03:36:16;;;;;;;19.63;10.50;;;5.30;99.90;;;;;;5038923;28;20027;-91
2023/04/26 03:38:44;;;;;;;19.88;10.68;;;5.30;99.90;;;;;;5005099;28;20061;-90
2023/04/26 03:41:21;;;;;;;19.38;10.48;;;5.30;99.90;;;;;;5021380;28;20075;-91
2023/04/26 03:43:50;;;;;;;18.00;10.82;;;5.20;99.90;;;;;;5021160;28;20048;-91
2023/04/26 03:46:26;;;;;;;21.63;10.73;;;5.30;99.90;;;;;;5020911;28;20022;-91
2023/04/26 03:49:22;;;;;;;;;;;;;;;;;;;;;
2023/04/26 03:52:18;;;;;;;29.08;11.63;;;5.20;99.90;;;;;;5038165;28;20389;-90
2023/04/26 03:55:08;;;;;;;20.23;11.43;;;5.20;99.90;;;;;;5023451;28;20030;-90
2023/04/26 03:58:10;;;;;;;22.63;11.10;;;5.20;99.90;;;;;;5021256;28;20033;-91
2023/04/26 04:00:44;;;;;;;25.50;12.60;;;5.10;99.90;;;;;;5008359;28;20304;-90
2023/04/26 04:03:25;;;;;;;26.80;13.32;;;5.10;99.90;;;;;;5004258;28;20056;-90
2023/04/26 04:06:14;;;;;;;24.00;10.90;;;5.10;99.90;;;;;;5006125;28;20083;-90
2023/04/26 04:08:44;;;;;;;23.23;12.13;;;5.10;99.90;;;;;;5022907;28;20043;-91
2023/04/26 04:13:56;;;;;;;21.33;12.73;;;5.10;99.90;;;;;;5041812;28;20034;-90
2023/04/26 04:16:27;;;;;;;23.15;12.32;;;5.00;99.90;;;;;;5021427;28;20029;-90
2023/04/26 04:19:02;;;;;;;29.23;15.10;;;5.00;99.90;;;;;;5020768;28;20029;-90
2023/04/26 04:21:49;;;;;;;;;;;;;;;;;;;;;
2023/04/26 04:24:20;;;;;;;24.95;13.48;;;5.00;99.90;;;;;;5038044;28;20030;-90
2023/04/26 04:27:01;;;;;;;;;;;;;;;;;;;;;
2023/04/26 04:29:40;;;;;;;;;;;;;;;;;;;;;
2023/04/26 04:32:17;;;;;;;25.23;12.30;;;4.90;99.90;;;;;;5037975;28;20030;-90
2023/04/26 04:35:17;;;;;;;24.98;12.18;;;4.90;99.90;;;;;;5020571;28;20026;-91
2023/04/26 04:37:49;;;;;;;26.00;12.55;;;5.00;99.90;;;;;;5020404;28;20484;-91
2023/04/26 04:45:23;;;;;;;21.23;12.43;;;4.90;99.90;;;;;;5035074;28;20069;-92
2023/04/26 04:47:49;;;;;;;25.90;14.10;;;4.90;99.90;;;;;;5008971;28;20034;-88
2023/04/26 04:50:15;;;;;;;25.10;13.40;;;4.90;99.90;;;;;;4986659;28;20025;-89
2023/04/26 04:52:41;;;;;;;23.88;12.68;;;4.90;99.90;;;;;;4986643;28;20061;-90
2023/04/26 04:55:09;;;;;;;26.17;12.57;;;5.00;99.90;;;;;;4987412;28;20041;-89
2023/04/26 04:58:03;;;;;;;28.67;12.80;;;5.00;99.90;;;;;;4996673;28;20033;-94
2023/04/26 05:00:29;;;;;;;27.95;12.30;;;5.00;99.90;;;;;;5020526;28;20020;-94
2023/04/26 05:02:55;;;;;;;26.90;11.63;;;5.00;99.90;;;;;;4987994;28;20022;-92
2023/04/26 05:05:22;;;;;;;20.63;12.35;;;5.00;99.90;;;;;;5005124;28;20017;-89
2023/04/26 05:07:47;;;;;;;24.20;12.15;;;5.00;99.90;;;;;;5018753;28;20057;-88
2023/04/26 05:10:13;;;;;;;26.80;12.60;;;5.00;99.90;;;;;;5017555;28;20045;-89
2023/04/26 05:12:39;;;;;;;21.85;12.38;;;5.10;99.90;;;;;;5018576;28;20065;-88
2023/04/26 05:15:05;;;;;;;24.08;12.02;;;5.00;99.90;;;;;;4986344;28;20068;-88
2023/04/26 05:17:32;;;;;;;22.67;12.27;;;5.10;99.90;;;;;;4988043;28;20088;-89
2023/04/26 05:19:58;;;;;;;23.63;11.60;;;5.10;99.90;;;;;;5019603;28;20018;-88
2023/04/26 05:22:38;;;;;;;22.45;12.07;;;5.10;99.90;;;;;;5018658;28;20018;-88
2023/04/26 05:25:04;;;;;;;27.58;11.82;;;5.10;99.90;;;;;;4986907;28;20036;-89
2023/04/26 05:27:30;;;;;;;21.48;11.95;;;5.10;99.90;;;;;;5002908;28;20489;-92
2023/04/26 05:29:56;;;;;;;23.85;11.52;;;5.10;99.90;;;;;;5002125;28;20030;-88
2023/04/26 05:32:21;;;;;;;23.63;11.90;;;5.20;99.90;;;;;;5019120;28;20581;-89
2023/04/26 05:34:47;;;;;;;29.90;11.75;;;5.10;99.90;;;;;;5001627;28;20120;-89
2023/04/26 05:37:13;;;;;;;22.40;10.93;;;5.20;99.90;;;;;;5018448;28;20061;-89
2023/04/26 05:39:39;;;;;;;26.83;12.55;;;5.20;99.90;;;;;;5002135;28;20095;-89
2023/04/26 05:42:05;;;;;;;23.30;10.80;;;5.20;99.90;;;;;;5001660;28;20037;-88
2023/04/26 05:44:30;;;;;;;23.05;11.90;;;5.20;99.90;;;;;;5001149;28;20079;-91
2023/04/26 05:46:56;;;;;;;21.85;10.65;;;5.20;99.90;;;;;;5022558;28;20030;-90
2023/04/26 05:49:22;;;;;;;21.77;10.35;;;5.20;99.90;;;;;;5019083;28;20017;-91
2023/04/26 05:51:48;;;;;;;20.73;10.35;;;5.30;99.90;;;;;;5002825;28;20018;-92
2023/04/26 05:54:13;;;;;;;21.73;11.10;;;5.30;99.90;;;;;;4986344;28;20086;-91
2023/04/26 05:56:39;;;;;;;19.83;10.30;;;5.30;99.90;;;;;;5019262;28;20021;-91
2023/04/26 05:59:05;;;;;;;22.95;9.98;;;5.40;99.90;;;;;;5018934;28;20025;-91
2023/04/26 06:01:31;;;;;;;21.35;10.10;;;5.40;99.90;;;;;;5019982;28;20061;-93
2023/04/26 06:03:57;;;;;;;23.63;10.25;;;5.40;99.90;;;;;;4985914;28;20029;-95
2023/04/26 06:06:22;;;;;;;17.77;10.27;;;5.40;99.90;;;;;;5011886;28;20037;-94
2023/04/26 06:08:48;;;;;;;17.60;10.05;;;5.50;99.90;;;;;;5006291;28;20041;-88
2023/04/26 06:11:23;;;;;;;21.67;9.88;;;5.50;99.90;;;;;;4985381;28;20363;-89
2023/04/26 06:13:49;;;;;;;19.98;9.85;;;5.60;99.90;;;;;;5000212;28;20488;-93
2023/04/26 06:16:15;;;;;;;15.93;8.95;;;5.70;99.90;;;;;;5005737;28;20455;-88
2023/04/26 06:18:40;;;;;;;17.30;9.80;;;5.70;99.90;;;;;;5037783;28;20029;-89
2023/04/26 06:21:07;;;;;;;20.58;10.65;;;5.70;99.90;;;;;;5020349;28;20087;-88
2023/04/26 06:23:32;;;;;;;19.02;8.73;;;5.80;99.90;;;;;;5054588;28;20029;-89
2023/04/26 06:25:58;;;;;;;20.63;8.65;;;5.80;99.90;;;;;;5020677;28;20390;-92
2023/04/26 06:28:24;;;;;;;19.60;10.00;;;5.90;99.90;;;;;;5005127;28;20029;-92
2023/04/26 06:30:50;;;;;;;20.40;9.52;;;6.00;99.90;;;;;;5038034;28;20052;-92
2023/04/26 06:33:15;;;;;;;19.02;9.57;;;6.00;99.90;;;;;;5005002;28;20037;-87
2023/04/26 06:35:41;;;;;;;20.13;10.10;;;6.10;99.90;;;;;;5004726;28;20041;-87
2023/04/26 06:38:08;;;;;;;23.15;9.68;;;6.20;99.90;;;;;;5057347;28;20043;-89
2023/04/26 06:40:38;;;;;;;19.98;9.20;;;6.20;99.90;;;;;;5037964;28;20067;-89
2023/04/26 06:43:03;;;;;;;14.57;7.32;;;6.30;99.90;;;;;;5013234;28;20033;-89
2023/04/26 06:45:29;;;;;;;16.33;7.65;;;6.30;99.90;;;;;;5018880;28;20100;-89
2023/04/26 06:48:03;;;;;;;19.08;8.25;;;6.40;99.90;;;;;;5031044;28;20041;-88
2023/04/26 06:50:39;;;;;;;17.50;7.68;;;6.40;99.90;;;;;;5001304;28;20026;-88
2023/04/26 06:53:04;;;;;;;17.58;7.40;;;6.40;99.90;;;;;;5001210;28;20032;-89
2023/04/26 06:55:30;;;;;;;14.10;7.45;;;6.50;99.90;;;;;;5000405;28;20116;-89
2023/04/26 06:57:56;;;;;;;16.52;6.95;;;6.50;99.90;;;;;;4983968;28;20026;-88
2023/04/26 07:00:22;;;;;;;18.40;7.35;;;6.60;99.90;;;;;;4984350;28;20124;-88
2023/04/26 07:02:47;;;;;;;16.55;7.07;;;6.60;99.90;;;;;;5017377;28;20049;-89
2023/04/26 07:05:14;;;;;;;16.67;6.70;;;6.70;99.90;;;;;;4984291;28;20050;-88
2023/04/26 07:07:39;;;;;;;15.45;6.68;;;6.70;99.90;;;;;;4984176;28;20033;-88
2023/04/26 07:10:08;;;;;;;16.13;6.43;;;6.80;99.90;;;;;;4984489;28;20029;-95
2023/04/26 07:12:34;;;;;;;17.60;6.55;;;6.90;99.90;;;;;;5017189;28;20032;-95
2023/04/26 07:15:10;;;;;;;15.75;7.00;;;7.00;99.90;;;;;;4984757;28;20033;-94
2023/04/26 07:17:35;;;;;;;16.45;6.53;;;7.00;99.90;;;;;;4985106;28;20482;-89
2023/04/26 07:20:01;;;;;;;14.35;5.55;;;7.10;99.90;;;;;;4981874;28;20037;-87
2023/04/26 07:22:27;;;;;;;12.90;6.10;;;7.20;99.90;;;;;;4997732;28;20029;-89
2023/04/26 07:24:53;;;;;;;8.73;4.90;;;7.30;99.90;;;;;;4989838;28;20049;-88
2023/04/26 07:27:18;;;;;;;12.50;5.28;;;7.40;99.90;;;;;;4986446;28;20037;-90
2023/04/26 07:29:44;;;;;;;12.05;4.80;;;7.40;99.90;;;;;;5002813;28;20052;-89
2023/04/26 07:32:10;;;;;;;11.45;4.78;;;7.50;99.90;;;;;;4986252;28;20504;-89
2023/04/26 07:34:42;;;;;;;10.23;5.47;;;7.50;99.90;;;;;;5003585;28;20107;-89
2023/04/26 07:37:08;;;;;;;11.38;4.25;;;7.60;99.90;;;;;;5017482;28;20108;-89
2023/04/26 07:39:34;;;;;;;10.13;4.25;;;7.60;99.90;;;;;;5017531;28;20033;-89
2023/04/26 07:41:59;;;;;;;13.68;4.45;;;7.70;99.90;;;;;;5018534;28;20052;-88
2023/04/26 07:44:25;;;;;;;8.82;4.13;;;7.80;99.90;;;;;;5014180;28;20049;-88
2023/04/26 07:46:51;;;;;;;8.02;3.45;;;7.80;99.90;;;;;;4983210;28;20034;-88
2023/04/26 07:49:17;;;;;;;9.52;2.78;;;7.90;99.90;;;;;;4984431;28;20038;-89
2023/04/26 07:51:44;;;;;;;8.30;2.60;;;8.00;99.90;;;;;;4985194;28;20030;-89
2023/04/26 07:54:11;;;;;;;6.60;3.42;;;8.00;99.90;;;;;;5000498;28;20029;-89
2023/04/26 07:56:36;;;;;;;9.85;3.33;;;8.10;99.90;;;;;;4985853;28;20033;-91
2023/04/26 07:59:03;;;;;;;10.65;3.15;;;8.10;99.90;;;;;;5002756;28;20034;-90
2023/04/26 08:01:29;;;;;;;14.23;4.57;;;8.10;99.90;;;;;;4989149;28;20021;-90
2023/04/26 08:03:55;;;;;;;8.23;3.00;;;8.20;99.90;;;;;;5030275;28;20023;-89
2023/04/26 08:06:21;;;;;;;8.95;2.55;;;8.30;99.90;;;;;;5015369;28;20102;-89
2023/04/26 08:08:49;;;;;;;12.45;3.40;;;8.40;99.90;;;;;;5008395;28;20084;-88
2023/04/26 08:11:15;;;;;;;10.18;3.75;;;8.40;99.90;;;;;;4969037;28;20030;-88
2023/04/26 08:13:44;;;;;;;8.15;3.90;;;8.40;99.90;;;;;;4995533;28;20421;-89
2023/04/26 08:16:10;;;;;;;9.13;3.10;;;8.50;99.90;;;;;;5005976;28;20029;-95
2023/04/26 08:18:35;;;;;;;7.85;3.22;;;8.50;99.90;;;;;;4989721;28;20060;-93
2023/04/26 08:21:01;;;;;;;15.70;3.80;;;8.60;99.90;;;;;;5003930;28;20056;-89
2023/04/26 08:23:30;;;;;;;9.65;3.50;;;8.60;99.90;;;;;;5003805;28;20164;-89
2023/04/26 08:25:56;;;;;;;7.35;2.53;;;8.70;99.90;;;;;;5019771;28;20021;-89
2023/04/26 08:28:22;;;;;;;6.35;2.35;;;8.70;99.90;;;;;;5003735;28;20033;-89
2023/04/26 08:30:50;;;;;;;5.57;2.20;;;8.70;99.90;;;;;;5003559;28;20030;-89
2023/04/26 08:33:17;;;;;;;7.55;2.50;;;8.70;99.90;;;;;;4987101;28;20033;-89
2023/04/26 08:35:42;;;;;;;11.65;2.55;;;8.80;99.90;;;;;;5020290;28;20043;-89
2023/04/26 08:38:08;;;;;;;9.90;2.50;;;8.80;99.90;;;;;;5003699;28;20483;-89
2023/04/26 08:40:35;;;;;;;10.25;2.90;;;9.00;99.90;;;;;;4987849;28;20088;-90
2023/04/26 08:43:01;;;;;;;6.57;2.22;;;9.00;99.90;;;;;;5025274;28;20052;-90
2023/04/26 08:45:27;;;;;;;11.05;3.22;;;9.10;99.90;;;;;;5004639;28;20053;-90
2023/04/26 08:47:57;;;;;;;10.48;2.58;;;9.10;99.90;;;;;;5022034;28;20119;-88
2023/04/26 08:50:23;;;;;;;7.75;2.63;;;9.20;99.90;;;;;;5024132;28;20026;-90
2023/04/26 08:52:51;;;;;;;6.93;2.10;;;9.20;99.90;;;;;;5003060;28;20033;-89
2023/04/26 08:55:18;;;;;;;9.43;2.70;;;9.20;99.90;;;;;;5019346;28;20021;-89
2023/04/26 08:57:48;;;;;;;10.55;2.10;;;9.30;99.90;;;;;;5002809;28;20475;-89
2023/04/26 09:00:16;;;;;;;7.28;2.65;;;9.30;99.90;;;;;;5019307;28;20021;-89
2023/04/26 09:02:51;;;;;;;8.00;2.10;;;9.30;99.90;;;;;;5019539;28;20474;-89
2023/04/26 09:05:23;;;;;;;8.02;2.15;;;9.40;99.90;;;;;;5002978;28;20509;-89
2023/04/26 09:07:50;;;;;;;7.75;1.80;;;9.40;99.90;;;;;;5006297;28;20041;-94
2023/04/26 09:10:22;;;;;;;6.82;2.20;;;9.40;99.90;;;;;;4988453;28;20085;-94
2023/04/26 09:12:54;;;;;;;6.95;2.35;;;9.50;99.90;;;;;;5024442;28;20087;-92
2023/04/26 09:15:21;;;;;;;4.50;2.03;;;9.50;99.90;;;;;;5025293;28;20103;-93
2023/04/26 09:17:50;;;;;;;7.38;2.33;;;9.60;99.90;;;;;;5004918;28;20032;-92
2023/04/26 09:20:19;;;;;;;5.57;1.90;;;9.60;99.90;;;;;;5007084;28;20025;-93
2023/04/26 09:22:46;;;;;;;6.47;2.20;;;9.60;99.90;;;;;;5021685;28;20160;-88
2023/04/26 09:25:12;;;;;;;4.80;1.67;;;9.50;99.90;;;;;;5018639;28;20018;-89
2023/04/26 09:27:42;;;;;;;6.53;2.45;;;9.60;99.90;;;;;;5020715;28;20036;-89
2023/04/26 09:30:14;;;;;;;7.53;1.70;;;9.70;99.90;;;;;;5020345;28;20032;-88
2023/04/26 09:32:43;;;;;;;7.63;2.00;;;9.80;99.90;;;;;;5019301;28;20358;-87
2023/04/26 09:35:21;;;;;;;7.35;1.73;;;9.80;99.90;;;;;;5018706;28;20125;-88
2023/04/26 09:37:52;;;;;;;6.75;2.05;;;10.00;99.90;;;;;;5029297;28;20048;-91
2023/04/26 09:40:19;;;;;;;9.25;2.72;;;10.00;99.90;;;;;;5019195;28;20033;-89
2023/04/26 09:43:01;;;;;;;9.68;2.80;;;10.00;99.90;;;;;;5018328;28;20080;-89
2023/04/26 09:45:28;;;;;;;8.15;2.38;;;10.00;99.90;;;;;;5018318;28;20045;-89
2023/04/26 09:47:54;;;;;;;7.40;2.50;;;10.00;99.90;;;;;;5018137;28;20095;-89
2023/04/26 09:50:30;;;;;;;6.10;2.03;;;9.90;99.90;;;;;;5018266;28;20059;-89
2023/04/26 09:52:56;;;;;;;5.80;1.70;;;9.90;99.90;;;;;;5018393;28;20431;-89
2023/04/26 09:55:28;;;;;;;9.77;2.10;;;9.90;99.90;;;;;;5002062;28;20217;-93
2023/04/26 09:57:59;;;;;;;7.85;2.17;;;9.90;99.90;;;;;;5020514;28;20087;-94
2023/04/26 10:00:26;;;;;;;7.50;1.95;;;9.80;99.90;;;;;;5020267;28;20033;-94
2023/04/26 10:02:55;;;;;;;7.18;2.15;;;9.80;99.90;;;;;;5019613;28;20030;-94
2023/04/26 10:05:21;;;;;;;5.72;2.10;;;9.70;99.90;;;;;;5020426;28;20075;-93
2023/04/26 10:07:48;;;;;;;6.72;2.30;;;9.70;99.90;;;;;;5020314;28;20021;-94
2023/04/26 10:10:14;;;;;;;9.63;2.55;;;9.70;99.90;;;;;;5003740;28;20030;-94
2023/04/26 10:12:43;;;;;;;5.70;2.55;;;9.80;99.90;;;;;;5003278;28;20096;-89
2023/04/26 10:15:10;;;;;;;8.00;2.67;;;9.80;99.90;;;;;;5002273;28;20410;-89
2023/04/26 10:17:37;;;;;;;8.40;2.80;;;9.80;99.90;;;;;;5002118;28;20034;-89
2023/04/26 10:20:07;;;;;;;10.32;2.40;;;9.80;99.90;;;;;;5001451;28;20025;-89
2023/04/26 10:22:43;;;;;;;7.22;2.42;;;9.80;99.90;;;;;;5017856;28;20045;-89
2023/04/26 10:25:09;;;;;;;7.47;2.50;;;9.80;99.90;;;;;;5017965;28;20022;-89
2023/04/26 10:27:44;;;;;;;10.50;2.78;;;9.80;99.90;;;;;;5017871;28;20112;-89
2023/04/26 10:30:15;;;;;;;7.50;2.70;;;9.80;99.90;;;;;;5018460;28;20033;-92
2023/04/26 10:32:56;;;;;;;6.38;2.92;;;9.80;99.90;;;;;;5018137;28;20104;-89
2023/04/26 10:35:26;;;;;;;8.98;3.50;;;9.80;99.90;;;;;;5017993;28;20033;-88
2023/04/26 10:38:02;;;;;;;10.38;3.03;;;9.80;99.90;;;;;;5001359;28;20029;-89
2023/04/26 10:40:38;;;;;;;7.78;2.67;;;9.90;99.90;;;;;;5035539;28;20104;-95
2023/04/26 10:43:13;;;;;;;8.20;2.60;;;9.90;99.90;;;;;;5020452;28;20029;-95
2023/04/26 10:45:40;;;;;;;7.00;2.60;;;9.90;99.90;;;;;;5024474;28;20477;-90
2023/04/26 10:48:19;;;;;;;9.88;2.75;;;9.90;99.90;;;;;;5030125;28;20488;-90
2023/04/26 10:51:00;;;;;;;7.43;2.90;;;10.00;99.90;;;;;;5021738;28;20025;-89
2023/04/26 10:53:52;;;;;;;;;;;10.00;99.90;;;;;;5026177;28;20083;-89
2023/04/26 10:56:27;;;;;;;5.45;2.28;;;10.00;99.90;;;;;;5031194;28;19913;-89
2023/04/26 10:59:26;;;;;;;8.32;3.20;;;10.10;99.90;;;;;;5025996;28;20481;-89
2023/04/26 11:01:52;;;;;;;6.57;2.65;;;10.10;99.90;;;;;;4986045;28;20037;-89
2023/04/26 11:04:17;;;;;;;5.85;3.25;;;10.10;99.90;;;;;;5039002;28;20096;-89
2023/04/26 11:06:56;;;;;;;8.18;2.40;;;10.20;99.90;;;;;;5026892;28;20024;-90
2023/04/26 11:09:48;;;;;;;8.90;2.70;;;10.20;99.90;;;;;;5034131;28;20367;-89
2023/04/26 11:12:15;;;;;;;5.43;2.90;;;10.30;99.90;;;;;;5023526;28;20089;-88
2023/04/26 11:14:42;;;;;;;6.85;2.17;;;10.20;99.90;;;;;;4999607;28;20128;-88
2023/04/26 11:17:08;;;;;;;5.25;2.08;;;10.20;99.90;;;;;;5009780;28;20036;-89
2023/04/26 11:19:35;;;;;;;9.00;2.60;;;10.20;99.90;;;;;;5028002;28;20021;-94
2023/04/26 11:22:08;;;;;;;6.47;2.42;;;10.20;99.90;;;;;;5006633;28;20022;-94
2023/04/26 11:24:35;;;;;;;8.07;2.42;;;10.20;99.90;;;;;;5021232;28;20047;-94
2023/04/26 11:27:08;;;;;;;5.13;2.28;;;10.20;99.90;;;;;;5033315;28;20032;-92
2023/04/26 11:29:34;;;;;;;5.45;2.83;;;10.30;99.90;;;;;;5032552;28;20038;-93
2023/04/26 11:31:59;;;;;;;8.73;2.38;;;10.30;99.90;;;;;;5051636;28;20424;-93
2023/04/26 11:34:33;;;;;;;7.00;2.30;;;10.30;99.90;;;;;;5051566;28;20028;-94
2023/04/26 11:36:59;;;;;;;8.90;3.38;;;10.30;99.90;;;;;;5037331;28;20032;-91
2023/04/26 11:39:24;;;;;;;26.02;18.65;;;10.30;99.90;;;;;;5055624;28;20043;-91
2023/04/26 11:41:50;;;;;;;61.45;25.67;;;10.40;99.90;;;;;;5019554;28;20105;-92
2023/04/26 11:44:19;;;;;;;14.63;6.50;;;10.40;99.90;;;;;;5007104;28;20045;-90
2023/04/26 11:46:49;;;;;;;14.07;5.68;;;10.40;99.90;;;;;;5005943;28;20497;-92
2023/04/26 11:49:16;;;;;;;10.57;5.90;;;10.40;99.90;;;;;;5004733;28;20363;-90
2023/04/26 11:51:42;;;;;;;13.80;7.28;;;10.50;99.90;;;;;;5019918;28;20021;-90
2023/04/26 11:54:08;;;;;;;23.95;15.18;;;10.50;99.90;;;;;;5020397;28;20075;-92
2023/04/26 11:56:33;;;;;;;34.78;19.95;;;10.50;99.90;;;;;;5004420;28;20116;-89
2023/04/26 11:59:02;;;;;;;49.42;24.23;;;10.60;99.90;;;;;;5003771;28;20123;-90
2023/04/26 12:01:29;;;;;;;17.58;10.63;;;10.70;99.90;;;;;;5003815;28;20037;-89
2023/04/26 12:03:58;;;;;;;8.57;4.28;;;10.70;99.90;;;;;;5004978;28;20092;-94
2023/04/26 12:06:44;;;;;;;8.63;2.53;;;10.70;99.90;;;;;;5021768;28;20075;-94
2023/04/26 12:09:10;;;;;;;7.32;2.40;;;10.80;99.90;;;;;;4988581;28;20029;-91
2023/04/26 12:11:39;;;;;;;5.80;1.95;;;10.90;99.90;;;;;;5007753;28;20025;-94
2023/04/26 12:14:06;;;;;;;6.68;2.00;;;10.90;99.90;;;;;;5024883;28;20100;-94
2023/04/26 12:16:35;;;;;;;7.13;2.53;;;11.00;99.90;;;;;;5022621;28;20479;-92
2023/04/26 12:19:05;;;;;;;6.32;2.35;;;11.10;99.90;;;;;;5020074;28;20116;-92
2023/04/26 12:21:40;;;;;;;7.07;2.83;;;11.20;99.90;;;;;;5020249;28;20159;-91
2023/04/26 12:24:06;;;;;;;7.45;2.25;;;11.30;99.90;;;;;;5020784;28;20044;-91
2023/04/26 12:26:44;;;;;;;7.68;2.42;;;11.40;99.90;;;;;;4989145;28;20029;-90
2023/04/26 12:29:10;;;;;;;5.05;2.70;;;11.40;99.90;;;;;;5020382;28;20021;-92
2023/04/26 12:31:36;;;;;;;5.85;2.75;;;11.50;99.70;;;;;;4988856;28;20052;-90
2023/04/26 12:34:01;;;;;;;7.47;2.72;;;11.50;99.20;;;;;;4990768;28;20053;-90
2023/04/26 12:36:27;;;;;;;5.90;2.47;;;11.50;97.90;;;;;;5019663;28;20029;-91
2023/04/26 12:38:53;;;;;;;5.55;2.80;;;11.40;95.50;;;;;;4987375;28;20076;-91
2023/04/26 12:41:19;;;;;;;6.05;2.40;;;11.40;97.40;;;;;;4987176;28;20022;-90
2023/04/26 12:43:45;;;;;;;8.40;2.78;;;11.40;98.10;;;;;;5019640;28;20022;-88
2023/04/26 12:46:10;;;;;;;7.65;2.70;;;11.40;98.80;;;;;;4986575;28;20060;-88
2023/04/26 12:48:36;;;;;;;9.20;2.92;;;11.40;99.20;;;;;;5008149;28;20033;-95
2023/04/26 12:51:03;;;;;;;9.77;2.60;;;11.40;99.30;;;;;;5020634;28;20043;-88
2023/04/26 12:53:28;;;;;;;6.95;2.83;;;11.50;99.40;;;;;;4986244;28;20040;-88
2023/04/26 12:55:54;;;;;;;7.30;2.65;;;11.50;99.90;;;;;;5002487;28;20116;-89
2023/04/26 12:58:21;;;;;;;4.63;2.28;;;11.50;99.40;;;;;;4986180;28;20505;-89
2023/04/26 13:00:52;;;;;;;5.78;2.40;;;11.50;99.70;;;;;;4992130;28;20032;-95
2023/04/26 13:03:21;;;;;;;6.00;2.33;;;11.50;98.40;;;;;;5010222;28;20056;-94
2023/04/26 13:05:46;;;;;;;5.75;2.30;;;11.50;98.90;;;;;;5023160;28;20025;-91
2023/04/26 13:08:12;;;;;;;5.20;2.40;;;11.60;98.40;;;;;;5018760;28;20116;-91
2023/04/26 13:10:38;;;;;;;7.70;2.42;;;11.60;98.00;;;;;;5019110;28;20033;-90
2023/04/26 13:13:04;;;;;;;3.80;1.88;;;11.60;98.60;;;;;;4986850;28;20038;-91
2023/04/26 13:15:29;;;;;;;5.13;2.13;;;11.60;99.30;;;;;;5019060;28;20021;-90
2023/04/26 13:17:55;;;;;;;4.72;2.42;;;11.70;99.00;;;;;;4989878;28;20025;-91
2023/04/26 13:20:21;;;;;;;6.72;2.45;;;11.70;97.40;;;;;;5023521;28;20052;-96
2023/04/26 13:22:53;;;;;;;6.68;2.58;;;11.80;97.90;;;;;;5027959;28;20022;-93
2023/04/26 13:25:22;;;;;;;7.72;2.50;;;11.80;98.10;;;;;;5029908;28;20029;-94
2023/04/26 13:27:52;;;;;;;8.85;2.63;;;11.90;98.40;;;;;;5026161;28;20025;-94
2023/04/26 13:30:21;;;;;;;5.00;2.25;;;11.90;98.20;;;;;;5027606;28;20117;-94
2023/04/26 13:32:48;;;;;;;7.57;3.55;;;12.00;98.90;;;;;;5028698;28;20486;-95
2023/04/26 13:35:14;;;;;;;6.80;2.20;;;12.10;97.80;;;;;;5027918;28;20033;-94
2023/04/26 13:37:41;;;;;;;5.28;2.45;;;12.20;97.90;;;;;;5029062;28;20033;-94
2023/04/26 13:40:10;;;;;;;6.95;2.30;;;12.40;98.90;;;;;;5009796;28;20069;-92
2023/04/26 13:42:36;;;;;;;5.25;2.33;;;12.60;99.10;;;;;;5002467;28;20046;-89
2023/04/26 13:45:05;;;;;;;6.80;2.63;;;12.80;98.60;;;;;;4985013;28;20054;-89
2023/04/26 13:47:31;;;;;;;9.35;3.20;;;12.90;99.30;;;;;;5002065;28;20061;-88